Time;durP1;ratioP1;P1;durP2;ratioP2;P2;SDS_P1;SDS_P2;PMS_P1;PMS_P2;Temp;Humidity;BMP_temperature;BMP_pressure;BME280_temperature;BME280_humidity;BME280_pressure;Samples;Min_cycle;Max_cycle;Signal;HPM_P1;HPM_P2
2021/07/25 00:02:37;;;;;;;10.18;4.40;;;;;;;-148.56;100.00;61375.16;4984876;28;20109;-32
2021/07/25 00:06:01;;;;;;;6.40;4.35;;;;;;;-148.56;100.00;61375.16;4986017;28;20053;-30
2021/07/25 00:09:25;;;;;;;10.00;4.25;;;;;;;-148.56;100.00;61375.16;4988737;28;20065;-31
2021/07/25 00:12:49;;;;;;;8.68;4.82;;;;;;;-148.56;100.00;61375.16;4992802;28;20030;-31
2021/07/25 00:16:13;;;;;;;10.05;4.65;;;;;;;-148.56;100.00;61375.16;4984607;28;20796;-32
2021/07/25 00:19:37;;;;;;;9.95;4.30;;;;;;;-148.56;100.00;61375.16;4988987;28;20053;-31
2021/07/25 00:23:02;;;;;;;5.65;3.80;;;;;;;-148.56;100.00;61375.16;4986902;28;20551;-32
2021/07/25 00:26:27;;;;;;;9.90;4.20;;;;;;;-148.56;100.00;61375.16;4984331;28;20036;-31
2021/07/25 00:29:51;;;;;;;10.63;5.15;;;;;;;-148.56;100.00;61375.16;4989108;28;20045;-33
2021/07/25 00:33:15;;;;;;;8.02;4.22;;;;;;;-148.56;100.00;61375.16;4981756;28;20030;-29
2021/07/25 00:36:38;;;;;;;8.00;4.45;;;;;;;-148.56;100.00;61375.16;4988086;28;20026;-30
2021/07/25 00:40:02;;;;;;;7.82;4.10;;;;;;;-148.56;100.00;61375.16;4988747;28;20064;-30
2021/07/25 00:43:36;;;;;;;7.55;4.68;;;;;;;-148.56;100.00;61375.16;4981526;28;20188;-31
2021/07/25 00:47:00;;;;;;;10.55;3.95;;;;;;;-148.56;100.00;61375.16;4985838;28;20057;-33
2021/07/25 00:50:24;;;;;;;8.73;4.43;;;;;;;-148.56;100.00;61375.16;4985977;28;20026;-31
2021/07/25 00:53:48;;;;;;;8.15;4.05;;;;;;;-148.56;100.00;61375.16;4991291;28;20029;-33
2021/07/25 00:57:12;;;;;;;11.50;4.40;;;;;;;-148.56;100.00;61375.16;4978839;28;20022;-30
2021/07/25 01:00:36;;;;;;;8.02;4.82;;;;;;;-148.56;100.00;61375.16;4999866;28;20157;-31
2021/07/25 01:04:49;;;;;;;11.32;4.57;;;;;;;-148.56;100.00;61375.16;4985483;28;20112;-30
2021/07/25 01:08:21;;;;;;;14.55;4.78;;;;;;;-148.56;100.00;61375.16;4975070;28;20599;-30
2021/07/25 01:12:04;;;;;;;7.07;4.67;;;;;;;-148.56;100.00;61375.16;5001810;28;20535;-30
2021/07/25 01:15:29;;;;;;;7.57;4.25;;;;;;;-148.56;100.00;61375.16;4984519;28;20107;-31
2021/07/25 01:18:53;;;;;;;9.75;4.60;;;;;;;-148.56;100.00;61375.16;4988818;28;20542;-29
2021/07/25 01:22:17;;;;;;;9.80;4.72;;;;;;;-148.56;100.00;61375.16;4993694;28;20069;-31
2021/07/25 01:25:41;;;;;;;10.20;5.00;;;;;;;-148.56;100.00;61375.16;4977311;28;20061;-32
2021/07/25 01:29:06;;;;;;;7.45;4.15;;;;;;;-148.56;100.00;61375.16;4992733;28;20025;-30
2021/07/25 01:32:32;;;;;;;9.35;4.68;;;;;;;-148.56;100.00;61375.16;4993758;28;20030;-30
2021/07/25 01:35:57;;;;;;;9.23;4.43;;;;;;;-148.56;100.00;61375.16;4990309;28;20030;-31
2021/07/25 01:39:21;;;;;;;7.15;4.25;;;;;;;-148.56;100.00;61375.16;4988877;28;20034;-32
2021/07/25 01:42:45;;;;;;;6.28;4.30;;;;;;;-148.56;100.00;61375.16;4989984;28;20029;-31
2021/07/25 01:46:09;;;;;;;10.45;4.68;;;;;;;-148.56;100.00;61375.16;4996000;28;20362;-31
2021/07/25 01:49:33;;;;;;;8.32;4.50;;;;;;;-148.56;100.00;61375.16;4988499;28;20053;-30
2021/07/25 01:52:57;;;;;;;6.38;4.50;;;;;;;-148.56;100.00;61375.16;4981187;28;20029;-32
2021/07/25 01:56:21;;;;;;;12.02;4.93;;;;;;;-148.56;100.00;61375.16;4985296;28;20064;-30
2021/07/25 01:59:44;;;;;;;9.18;4.82;;;;;;;-148.56;100.00;61375.16;4986330;28;20042;-33
2021/07/25 02:03:08;;;;;;;10.18;4.57;;;;;;;-148.56;100.00;61375.16;4982313;28;20452;-29
2021/07/25 02:06:35;;;;;;;6.05;4.47;;;;;;;-148.56;100.00;61375.16;4990047;28;20076;-32
2021/07/25 02:09:58;;;;;;;8.82;4.45;;;;;;;-148.56;100.00;61375.16;4990480;28;20026;-31
2021/07/25 02:13:22;;;;;;;10.13;4.32;;;;;;;-148.56;100.00;61375.16;4982380;28;20095;-31
2021/07/25 02:16:46;;;;;;;5.97;3.95;;;;;;;-148.56;100.00;61375.16;4984576;28;20602;-29
2021/07/25 02:20:10;;;;;;;8.90;4.15;;;;;;;-148.56;100.00;61375.16;4988760;28;20044;-31
2021/07/25 02:23:34;;;;;;;5.95;4.25;;;;;;;-148.56;100.00;61375.16;4983016;28;20030;-29
2021/07/25 02:26:58;;;;;;;12.10;4.80;;;;;;;-148.56;100.00;61375.16;4986073;28;20128;-33
2021/07/25 02:30:22;;;;;;;6.18;3.83;;;;;;;-148.56;100.00;61375.16;4985484;28;20211;-31
2021/07/25 02:33:45;;;;;;;10.02;3.85;;;;;;;-148.56;100.00;61375.16;4984488;28;20041;-31
2021/07/25 02:37:11;;;;;;;7.45;3.97;;;;;;;-148.56;100.00;61375.16;4981669;28;20030;-31
2021/07/25 02:40:35;;;;;;;9.98;4.20;;;;;;;-148.56;100.00;61375.16;4988088;28;20040;-31
2021/07/25 02:43:59;;;;;;;11.40;4.20;;;;;;;-148.56;100.00;61375.16;4986420;28;20562;-31
2021/07/25 02:47:23;;;;;;;9.40;4.30;;;;;;;-148.56;100.00;61375.16;4980660;28;20117;-31
2021/07/25 02:50:47;;;;;;;8.80;4.15;;;;;;;-148.56;100.00;61375.16;4981857;28;20038;-30
2021/07/25 02:54:11;;;;;;;8.00;4.10;;;;;;;-148.56;100.00;61375.16;4986372;28;20422;-32
2021/07/25 02:57:35;;;;;;;9.15;3.90;;;;;;;-148.56;100.00;61375.16;4978950;28;20492;-32
2021/07/25 03:00:59;;;;;;;10.45;4.07;;;;;;;-148.56;100.00;61375.16;4982233;28;20225;-30
2021/07/25 03:04:22;;;;;;;6.10;3.75;;;;;;;-148.56;100.00;61375.16;4982217;28;20965;-31
2021/07/25 03:07:46;;;;;;;13.07;4.28;;;;;;;-148.56;100.00;61375.16;4983696;28;20033;-30
2021/07/25 03:11:10;;;;;;;10.18;3.95;;;;;;;-148.56;100.00;61375.16;5000340;28;20030;-32
2021/07/25 03:14:34;;;;;;;10.70;3.90;;;;;;;-148.56;100.00;61375.16;4982448;28;20055;-31
2021/07/25 03:17:58;;;;;;;11.05;3.90;;;;;;;-148.56;100.00;61375.16;4981167;28;20156;-32
2021/07/25 03:21:22;;;;;;;8.05;4.00;;;;;;;-148.56;100.00;61375.16;4984318;28;20057;-32
2021/07/25 03:24:46;;;;;;;7.80;3.72;;;;;;;-148.56;100.00;61375.16;4983692;28;20546;-31
2021/07/25 03:28:10;;;;;;;9.57;3.53;;;;;;;-148.56;100.00;61375.16;4984058;28;20049;-32
2021/07/25 03:31:34;;;;;;;5.57;3.60;;;;;;;-148.56;100.00;61375.16;4983490;28;20396;-32
2021/07/25 03:34:58;;;;;;;5.78;3.58;;;;;;;-148.56;100.00;61375.16;4984438;28;20038;-30
2021/07/25 03:38:22;;;;;;;9.35;3.63;;;;;;;-148.56;100.00;61375.16;4991301;28;20061;-30
2021/07/25 03:41:46;;;;;;;9.73;3.60;;;;;;;-148.56;100.00;61375.16;4990236;28;20080;-31
2021/07/25 03:45:10;;;;;;;6.55;3.10;;;;;;;-148.56;100.00;61375.16;4987199;28;20035;-31
2021/07/25 03:48:33;;;;;;;6.82;3.58;;;;;;;-148.56;100.00;61375.16;4989099;28;20083;-30
2021/07/25 03:51:57;;;;;;;7.35;3.30;;;;;;;-148.56;100.00;61375.16;5003481;28;20091;-30
2021/07/25 03:55:21;;;;;;;8.80;3.47;;;;;;;-148.56;100.00;61375.16;4986648;28;20565;-29
2021/07/25 03:58:45;;;;;;;8.98;3.17;;;;;;;-148.56;100.00;61375.16;4995469;28;20058;-29
2021/07/25 04:02:09;;;;;;;6.10;3.33;;;;;;;-148.56;100.00;61375.16;4985399;28;20038;-33
2021/07/25 04:05:33;;;;;;;8.13;3.50;;;;;;;-148.56;100.00;61375.16;4997342;28;20064;-31
2021/07/25 04:08:57;;;;;;;6.57;3.50;;;;;;;-148.56;100.00;61375.16;4985889;28;20041;-30
2021/07/25 04:12:21;;;;;;;7.93;3.20;;;;;;;-148.56;100.00;61375.16;4988223;28;20038;-31
2021/07/25 04:15:45;;;;;;;9.35;3.33;;;;;;;-148.56;100.00;61375.16;4992449;28;20038;-28
2021/07/25 04:19:09;;;;;;;5.35;3.25;;;;;;;-148.56;100.00;61375.16;5000652;28;20030;-30
2021/07/25 04:22:33;;;;;;;8.50;3.35;;;;;;;-148.56;100.00;61375.16;4990610;28;20108;-31
2021/07/25 04:25:57;;;;;;;10.80;3.47;;;;;;;-148.56;100.00;61375.16;4986782;28;20109;-30
2021/07/25 04:29:21;;;;;;;5.18;3.00;;;;;;;-148.56;100.00;61375.16;4984559;28;20200;-30
2021/07/25 04:32:45;;;;;;;7.03;3.45;;;;;;;-148.56;100.00;61375.16;4996442;28;20075;-29
2021/07/25 04:36:13;;;;;;;8.25;3.40;;;;;;;-148.56;100.00;61375.16;4984903;28;20031;-29
2021/07/25 04:39:37;;;;;;;6.72;3.65;;;;;;;-148.56;100.00;61375.16;4986675;28;20092;-31
2021/07/25 04:43:02;;;;;;;7.53;3.10;;;;;;;-148.56;100.00;61375.16;4990808;28;20108;-32
2021/07/25 04:46:28;;;;;;;6.75;3.10;;;;;;;-148.56;100.00;61375.16;4987491;28;20034;-31
2021/07/25 04:49:55;;;;;;;5.82;3.22;;;;;;;-148.56;100.00;61375.16;4994791;28;20030;-31
2021/07/25 04:53:22;;;;;;;10.48;3.35;;;;;;;-148.56;100.00;61375.16;5002333;28;20033;-31
2021/07/25 04:56:59;;;;;;;7.38;3.10;;;;;;;-148.56;100.00;61375.16;4985174;28;20026;-29
2021/07/25 05:00:27;;;;;;;5.38;3.10;;;;;;;-148.56;100.00;61375.16;4994287;28;20405;-29
2021/07/25 05:03:51;;;;;;;6.72;2.97;;;;;;;-148.56;100.00;61375.16;5000709;28;20030;-31
2021/07/25 05:07:15;;;;;;;7.07;3.53;;;;;;;-148.56;100.00;61375.16;4990933;28;20069;-30
2021/07/25 05:10:39;;;;;;;5.60;2.80;;;;;;;-148.56;100.00;61375.16;4986503;28;20050;-30
2021/07/25 05:13:07;;;;;;;4.72;2.97;;;;;;;29.37;40.26;96093.16;4983534;28;20084;-30
2021/07/25 05:15:35;;;;;;;6.53;3.03;;;;;;;29.35;40.19;96097.72;4982765;28;20606;-30
2021/07/25 05:18:08;;;;;;;6.07;3.05;;;;;;;29.34;40.48;96094.22;4987184;28;20030;-31
2021/07/25 05:21:01;;;;;;;6.35;2.97;;;;;;;-148.56;100.00;61375.16;4990206;28;20797;-31
2021/07/25 05:24:23;;;;;;;4.65;2.95;;;;;;;-148.56;100.00;61375.16;4984869;28;20117;-31
2021/07/25 05:27:50;;;;;;;;;;;;;;;-148.56;100.00;61375.16;5001003;28;20029;-30
2021/07/25 05:31:14;;;;;;;7.88;3.30;;;;;;;-148.56;100.00;61375.16;4982423;28;19922;-30
2021/07/25 05:34:38;;;;;;;7.65;3.17;;;;;;;-148.56;100.00;61375.16;4985564;28;20164;-29
2021/07/25 05:37:46;;;;;;;12.68;3.33;;;;;;;-148.56;100.00;61375.16;4976443;28;22356;-29
2021/07/25 05:41:10;;;;;;;6.70;2.88;;;;;;;-148.56;100.00;61375.16;4981475;28;20030;-31
2021/07/25 05:44:31;;;;;;;4.95;3.17;;;;;;;-148.56;100.00;61375.16;4993514;28;20030;-31
2021/07/25 05:47:06;;;;;;;9.65;3.17;;;;;;;-148.56;100.00;61375.16;4986271;28;20052;-31
2021/07/25 05:49:54;;;;;;;5.57;2.72;;;;;;;-148.56;100.00;61375.16;4991236;28;20112;-30
2021/07/25 05:52:20;;;;;;;9.43;2.72;;;;;;;-148.56;100.00;61375.16;4985914;28;20030;-32
2021/07/25 05:55:44;;;;;;;8.73;2.85;;;;;;;-148.56;100.00;61375.16;4981139;28;20149;-32
2021/07/25 05:59:10;;;;;;;6.10;2.70;;;;;;;-148.56;100.00;61375.16;4985999;28;20014;-30
2021/07/25 06:02:48;;;;;;;6.35;2.90;;;;;;;-148.56;100.00;61375.16;4987016;28;20041;-32
2021/07/25 06:06:11;;;;;;;5.15;2.72;;;;;;;-148.56;100.00;61375.16;4980470;28;20033;-34
2021/07/25 06:08:44;;;;;;;7.00;2.83;;;;;;;-148.56;100.00;61375.16;4983247;28;20041;-30
2021/07/25 06:12:08;;;;;;;5.47;3.20;;;;;;;-148.56;100.00;61375.16;4985581;28;20034;-31
2021/07/25 06:15:33;;;;;;;8.68;3.00;;;;;;;-148.56;100.00;61375.16;4973541;28;20037;-30
2021/07/25 06:18:56;;;;;;;7.45;3.00;;;;;;;-148.56;100.00;61375.16;4990313;28;20033;-30
2021/07/25 06:21:23;;;;;;;9.30;2.80;;;;;;;-148.56;100.00;61375.16;4983268;28;20037;-30
2021/07/25 06:24:50;;;;;;;4.07;2.70;;;;;;;-148.56;100.00;61375.16;4983442;28;20046;-31
2021/07/25 06:28:14;;;;;;;5.95;2.70;;;;;;;-148.56;100.00;61375.16;4984309;28;20034;-31
2021/07/25 06:31:37;;;;;;;5.15;2.55;;;;;;;-148.56;100.00;61375.16;4985428;28;20408;-32
2021/07/25 06:35:01;;;;;;;6.32;2.88;;;;;;;-148.56;100.00;61375.16;4980648;28;20711;-30
2021/07/25 06:38:25;;;;;;;3.97;2.78;;;;;;;-148.56;100.00;61375.16;4979352;28;20121;-30
2021/07/25 06:41:50;;;;;;;6.95;2.72;;;;;;;-148.56;100.00;61375.16;4984966;28;20401;-32
2021/07/25 06:45:14;;;;;;;6.65;2.85;;;;;;;-148.56;100.00;61375.16;4982120;28;20037;-30
2021/07/25 06:47:45;;;;;;;5.18;2.90;;;;;;;29.34;100.00;72040.88;4981652;28;20038;-31
2021/07/25 06:51:09;;;;;;;5.07;2.88;;;;;;;-148.56;100.00;61375.16;4977217;28;20034;-29
2021/07/25 06:54:33;;;;;;;10.25;3.47;;;;;;;-148.56;100.00;61375.16;4979019;28;20034;-31
2021/07/25 06:57:57;;;;;;;5.35;3.25;;;;;;;-148.56;100.00;61375.16;4979205;28;20034;-34
2021/07/25 07:01:21;;;;;;;7.25;3.10;;;;;;;-148.56;100.00;61375.16;4980193;28;20127;-34
2021/07/25 07:04:44;;;;;;;5.28;3.38;;;;;;;-148.56;100.00;61375.16;4972263;28;20034;-33
2021/07/25 07:08:08;;;;;;;6.25;3.20;;;;;;;-148.56;100.00;61375.16;4980491;28;20049;-33
2021/07/25 07:11:36;;;;;;;5.63;3.25;;;;;;;-148.56;100.00;61375.16;4979850;28;20045;-31
2021/07/25 07:15:00;;;;;;;6.38;3.08;;;;;;;-148.56;100.00;61375.16;4988691;28;20492;-30
2021/07/25 07:18:23;;;;;;;4.55;2.95;;;;;;;-148.56;100.00;61375.16;4983196;28;20109;-32
2021/07/25 07:21:47;;;;;;;6.93;3.17;;;;;;;-148.56;100.00;61375.16;4991331;28;20324;-30
2021/07/25 07:25:11;;;;;;;8.13;3.22;;;;;;;-148.56;100.00;61375.16;4987237;28;20392;-35
2021/07/25 07:28:36;;;;;;;5.00;3.17;;;;;;;-148.56;100.00;61375.16;4999342;28;20057;-36
2021/07/25 07:32:00;;;;;;;3.80;2.88;;;;;;;-148.56;100.00;61375.16;4977016;28;20556;-29
2021/07/25 07:35:24;;;;;;;3.90;2.97;;;;;;;-148.56;100.00;61375.16;4966659;28;20092;-31
2021/07/25 07:38:48;;;;;;;4.50;3.20;;;;;;;-148.56;100.00;61375.16;4978682;28;20080;-31
2021/07/25 07:41:53;;;;;;;5.30;3.00;;;;;;;-148.56;100.00;61375.16;4989225;28;20038;-30
2021/07/25 07:44:23;;;;;;;5.97;3.13;;;;;;;-148.56;100.00;61375.16;4992578;28;20061;-31
2021/07/25 07:47:47;;;;;;;5.00;2.90;;;;;;;-148.56;100.00;61375.16;4983500;28;20026;-31
2021/07/25 07:51:11;;;;;;;6.47;3.40;;;;;;;-148.56;100.00;61375.16;4983513;28;20475;-30
2021/07/25 07:54:35;;;;;;;7.93;3.65;;;;;;;-148.56;100.00;61375.16;4981397;28;20038;-30
2021/07/25 07:57:42;;;;;;;4.90;3.00;;;;;;;-148.56;100.00;61375.16;4990432;28;20030;-29
2021/07/25 08:01:06;;;;;;;5.32;3.42;;;;;;;-148.56;100.00;61375.16;4993877;28;20544;-31
2021/07/25 08:04:30;;;;;;;7.10;2.90;;;;;;;-148.56;100.00;61375.16;4983172;28;20042;-30
2021/07/25 08:07:54;;;;;;;4.57;2.75;;;;;;;-148.56;100.00;61375.16;4970569;28;20049;-32
2021/07/25 08:11:18;;;;;;;5.72;3.33;;;;;;;-148.56;100.00;61375.16;4977987;28;20030;-31
2021/07/25 08:14:41;;;;;;;6.95;3.05;;;;;;;-148.56;100.00;61375.16;4988259;28;20025;-31
2021/07/25 08:18:05;;;;;;;6.72;3.25;;;;;;;-148.56;100.00;61375.16;4977607;28;20038;-32
2021/07/25 08:21:29;;;;;;;8.60;3.47;;;;;;;-148.56;100.00;61375.16;4981764;28;20038;-33
2021/07/25 08:24:53;;;;;;;5.07;3.00;;;;;;;-148.56;100.00;61375.16;4992463;28;20113;-33
2021/07/25 08:28:17;;;;;;;5.53;3.47;;;;;;;-148.56;100.00;61375.16;4990656;28;20097;-32
2021/07/25 08:31:41;;;;;;;3.88;3.15;;;;;;;-148.56;100.00;61375.16;4991490;28;20022;-32
2021/07/25 08:34:44;;;;;;;6.78;3.20;;;;;;;-148.56;100.00;61375.16;4998580;28;20178;-32
2021/07/25 08:37:54;;;;;;;4.68;3.60;;;;;;;-148.56;100.00;61375.16;4991350;28;20036;-35
2021/07/25 08:41:13;;;;;;;4.07;2.90;;;;;;;-148.56;100.00;61375.16;4992285;28;20026;-33
2021/07/25 08:44:54;;;;;;;5.47;3.25;;;;;;;-148.56;100.00;61375.16;4991730;28;20120;-31
2021/07/25 08:48:19;;;;;;;7.05;3.50;;;;;;;-148.56;100.00;61375.16;4987885;28;20030;-34
2021/07/25 08:51:47;;;;;;;7.93;3.40;;;;;;;-148.56;100.00;61375.16;4996014;28;20052;-35
2021/07/25 08:55:10;;;;;;;8.82;3.45;;;;;;;-148.56;100.00;61375.16;4991061;28;20042;-31
2021/07/25 08:58:38;;;;;;;8.85;3.15;;;;;;;-148.56;100.00;61375.16;4979652;28;20034;-31
2021/07/25 09:02:03;;;;;;;7.88;3.45;;;;;;;-148.56;100.00;61375.16;4979138;28;20075;-33
2021/07/25 09:05:28;;;;;;;13.27;4.30;;;;;;;-148.56;100.00;61375.16;4994074;28;20595;-29
2021/07/25 09:08:52;;;;;;;13.57;4.43;;;;;;;-148.56;100.00;61375.16;4974069;28;20026;-30
2021/07/25 09:12:16;;;;;;;18.08;5.60;;;;;;;-148.56;100.00;61375.16;4993093;28;20549;-30
2021/07/25 09:15:47;;;;;;;27.30;6.32;;;;;;;-148.56;100.00;61375.16;4981214;28;20038;-32
2021/07/25 09:18:46;;;;;;;15.40;5.68;;;;;;;-148.56;100.00;61375.16;4974734;28;20036;-32
2021/07/25 09:21:40;;;;;;;11.00;4.97;;;;;;;-148.56;100.00;61375.16;4976560;28;20113;-30
2021/07/25 09:25:22;;;;;;;12.93;5.43;;;;;;;-148.56;100.00;61375.16;4980284;28;20041;-29
2021/07/25 09:28:55;;;;;;;13.80;4.88;;;;;;;-148.56;100.00;61375.16;4991957;28;20026;-30
2021/07/25 09:32:21;;;;;;;14.05;4.68;;;;;;;-148.56;100.00;61375.16;4993960;28;20041;-31
2021/07/25 09:35:45;;;;;;;16.52;4.97;;;;;;;-148.56;100.00;61375.16;5000379;28;20038;-31
2021/07/25 09:39:09;;;;;;;9.40;4.28;;;;;;;-148.56;100.00;61375.16;4986140;28;20045;-30
2021/07/25 09:42:33;;;;;;;12.48;4.00;;;;;;;-148.56;100.00;61375.16;4978076;28;20257;-33
2021/07/25 09:46:01;;;;;;;10.70;4.18;;;;;;;-148.56;100.00;61375.16;4986300;28;20069;-29
2021/07/25 09:49:40;;;;;;;7.03;4.15;;;;;;;-148.56;100.00;61375.16;4989869;28;20025;-31
2021/07/25 09:53:05;;;;;;;9.43;4.18;;;;;;;-148.56;100.00;61375.16;4987190;28;20516;-30
2021/07/25 09:56:29;;;;;;;8.68;3.70;;;;;;;-148.56;100.00;61375.16;4983738;28;20041;-30
2021/07/25 09:59:53;;;;;;;6.93;3.85;;;;;;;-148.56;100.00;61375.16;4988709;28;20507;-29
2021/07/25 10:03:35;;;;;;;7.95;3.60;;;;;;;-148.56;100.00;61375.16;4985893;28;20438;-31
2021/07/25 10:07:18;;;;;;;7.88;3.80;;;;;;;-148.56;100.00;61375.16;4985821;28;20030;-32
2021/07/25 10:10:42;;;;;;;6.60;3.53;;;;;;;-148.56;100.00;61375.16;4979515;28;20610;-34
2021/07/25 10:14:06;;;;;;;6.47;3.80;;;;;;;-148.56;100.00;61375.16;4990769;28;20029;-32
2021/07/25 10:17:31;;;;;;;8.27;3.60;;;;;;;-148.56;100.00;61375.16;4987864;28;20057;-31
2021/07/25 10:20:55;;;;;;;5.97;3.35;;;;;;;-148.56;100.00;61375.16;4983937;28;20170;-30
2021/07/25 10:24:20;;;;;;;10.07;3.70;;;;;;;-148.56;100.00;61375.16;4999101;28;20045;-32
2021/07/25 10:27:44;;;;;;;5.35;3.28;;;;;;;-148.56;100.00;61375.16;4982236;28;20042;-30
2021/07/25 10:31:08;;;;;;;5.20;3.10;;;;;;;-148.56;100.00;61375.16;4989629;28;20128;-32
2021/07/25 10:34:37;;;;;;;7.47;3.75;;;;;;;-148.56;100.00;61375.16;4990479;28;20393;-30
2021/07/25 10:38:02;;;;;;;5.82;3.30;;;;;;;-148.56;100.00;61375.16;4997270;28;20030;-35
2021/07/25 10:41:26;;;;;;;6.18;3.47;;;;;;;-148.56;100.00;61375.16;4988131;28;20121;-30
2021/07/25 10:44:50;;;;;;;6.40;3.47;;;;;;;-148.56;100.00;61375.16;4991809;28;20504;-31
2021/07/25 10:48:18;;;;;;;5.70;3.65;;;;;;;-148.56;100.00;61375.16;4987901;28;20043;-30
2021/07/25 10:51:55;;;;;;;9.63;3.40;;;;;;;-148.56;100.00;61375.16;4995684;28;20027;-31
2021/07/25 10:55:43;;;;;;;5.40;3.15;;;;;;;-148.56;100.00;61375.16;4994095;28;20095;-31
2021/07/25 10:59:07;;;;;;;6.78;3.08;;;;;;;-148.56;100.00;61375.16;4986262;28;20025;-31
2021/07/25 11:02:50;;;;;;;4.63;2.97;;;;;;;-148.56;100.00;61375.16;5000947;28;20974;-30
2021/07/25 11:06:15;;;;;;;6.05;3.20;;;;;;;-148.56;100.00;61375.16;4989579;28;20085;-31
2021/07/25 11:10:03;;;;;;;3.90;2.97;;;;;;;-148.56;100.00;61375.16;4987207;28;20330;-32
2021/07/25 11:13:46;;;;;;;8.57;3.40;;;;;;;-148.56;100.00;61375.16;4979548;28;20042;-31
2021/07/25 11:17:10;;;;;;;;;;;;;;;-148.56;100.00;61375.16;4993897;28;20057;-31
2021/07/25 11:20:36;;;;;;;4.97;2.90;;;;;;;-148.56;100.00;61375.16;5003490;28;19921;-32
2021/07/25 11:24:19;;;;;;;5.47;2.92;;;;;;;-148.56;100.00;61375.16;4975973;28;20022;-32
2021/07/25 11:27:47;;;;;;;5.60;2.72;;;;;;;-148.56;100.00;61375.16;4973454;28;20035;-30
2021/07/25 11:31:11;;;;;;;4.00;2.90;;;;;;;-148.56;100.00;61375.16;4974027;28;20030;-30
2021/07/25 11:34:39;;;;;;;3.53;2.90;;;;;;;-148.56;100.00;61375.16;4968566;28;20514;-31
2021/07/25 11:38:10;;;;;;;5.68;3.33;;;;;;;-148.56;100.00;61375.16;4968481;28;20712;-32
2021/07/25 11:41:37;;;;;;;5.32;3.30;;;;;;;-148.56;100.00;61375.16;4964517;28;20038;-31
2021/07/25 11:45:02;;;;;;;5.05;3.28;;;;;;;-148.56;100.00;61375.16;4975215;28;20129;-30
2021/07/25 11:48:26;;;;;;;6.97;3.20;;;;;;;-148.56;100.00;61375.16;4969696;28;20038;-32
2021/07/25 11:51:50;;;;;;;3.97;3.08;;;;;;;-148.56;100.00;61375.16;4966441;28;20109;-30
2021/07/25 11:55:26;;;;;;;6.30;3.03;;;;;;;-148.56;100.00;61375.16;4972783;28;20128;-31
2021/07/25 11:59:01;;;;;;;16.08;4.55;;;;;;;-148.56;100.00;61375.16;4974333;28;20034;-39
2021/07/25 12:02:28;;;;;;;36.70;12.65;;;;;;;-148.56;100.00;61375.16;4980716;28;20303;-32
2021/07/25 12:06:08;;;;;;;45.08;16.30;;;;;;;-148.56;100.00;61375.16;4972926;28;20030;-32
2021/07/25 12:09:32;;;;;;;43.05;14.57;;;;;;;-148.56;100.00;61375.16;4973052;28;20561;-31
2021/07/25 12:13:06;;;;;;;34.53;12.98;;;;;;;-148.56;100.00;61375.16;4974723;28;20145;-30
2021/07/25 12:16:59;;;;;;;36.60;12.40;;;;;;;-148.56;100.00;61375.16;4973043;28;20638;-29
2021/07/25 12:20:28;;;;;;;31.58;11.65;;;;;;;-148.56;100.00;61375.16;4962403;28;20057;-33
2021/07/25 12:23:53;;;;;;;25.27;9.85;;;;;;;-148.56;100.00;61375.16;4971192;28;20113;-31
2021/07/25 12:27:28;;;;;;;26.85;10.77;;;;;;;-148.56;100.00;61375.16;4989841;28;20042;-32
2021/07/25 12:31:07;;;;;;;26.70;9.20;;;;;;;-148.56;100.00;61375.16;4974372;28;20030;-32
2021/07/25 12:34:31;;;;;;;25.05;8.82;;;;;;;-148.56;100.00;61375.16;4978583;28;20034;-34
2021/07/25 12:38:00;;;;;;;20.58;8.10;;;;;;;-148.56;100.00;61375.16;4986624;28;20030;-32
2021/07/25 12:41:50;;;;;;;18.52;7.95;;;;;;;-148.56;100.00;61375.16;4991158;28;20038;-31
2021/07/25 12:45:36;;;;;;;21.30;7.85;;;;;;;-148.56;100.00;61375.16;4975748;28;20148;-31
2021/07/25 12:49:19;;;;;;;21.90;6.85;;;;;;;-148.56;100.00;61375.16;4980278;28;20513;-32
2021/07/25 12:52:42;;;;;;;;;;;;;;;-148.56;100.00;61375.16;4981180;28;20034;-35
2021/07/25 12:56:19;;;;;;;18.08;6.88;;;;;;;-148.56;100.00;61375.16;4977931;28;20290;-32
2021/07/25 12:59:46;;;;;;;11.50;5.63;;;;;;;-148.56;100.00;61375.16;4977981;28;20025;-31
2021/07/25 13:06:56;;;;;;;11.00;5.30;;;;;;;-148.56;100.00;61375.16;4976155;28;20080;-37
2021/07/25 13:10:20;;;;;;;12.68;5.38;;;;;;;-148.56;100.00;61375.16;4977095;28;20284;-32
2021/07/25 13:13:45;;;;;;;12.65;5.65;;;;;;;-148.56;100.00;61375.16;4977926;28;20042;-32
2021/07/25 13:17:09;;;;;;;11.93;4.82;;;;;;;-148.56;100.00;61375.16;4990004;28;20026;-31
2021/07/25 13:20:33;;;;;;;17.00;4.90;;;;;;;-148.56;100.00;61375.16;4981527;28;20256;-30
2021/07/25 13:23:57;;;;;;;16.98;5.32;;;;;;;-148.56;100.00;61375.16;4980265;28;20037;-30
2021/07/25 13:27:21;;;;;;;12.43;4.95;;;;;;;-148.56;100.00;61375.16;4977103;28;20029;-31
2021/07/25 13:30:45;;;;;;;12.32;4.70;;;;;;;-148.56;100.00;61375.16;4976192;28;20061;-30
2021/07/25 13:34:08;;;;;;;10.95;4.70;;;;;;;-148.56;100.00;61375.16;4979229;28;20377;-31
2021/07/25 13:37:32;;;;;;;12.15;4.57;;;;;;;-148.56;100.00;61375.16;4977870;28;22638;-32
2021/07/25 13:40:56;;;;;;;8.23;4.10;;;;;;;-148.56;100.00;61375.16;4986021;28;20092;-31
2021/07/25 13:44:20;;;;;;;8.85;4.28;;;;;;;-148.56;100.00;61375.16;4976580;28;20078;-32
2021/07/25 13:47:44;;;;;;;8.60;4.20;;;;;;;-148.56;100.00;61375.16;4982549;28;20042;-31
2021/07/25 13:51:09;;;;;;;7.25;4.40;;;;;;;-148.56;100.00;61375.16;4983750;28;20029;-32
2021/07/25 13:54:35;;;;;;;6.93;3.90;;;;;;;-148.56;100.00;61375.16;4978307;28;20026;-30
2021/07/25 13:58:02;;;;;;;7.05;3.80;;;;;;;-148.56;100.00;61375.16;4988054;28;20633;-30
2021/07/25 14:01:26;;;;;;;15.48;4.10;;;;;;;-148.56;100.00;61375.16;4975915;28;20491;-31
2021/07/25 14:04:53;;;;;;;6.32;3.58;;;;;;;-148.56;100.00;61375.16;4984029;28;20112;-30
2021/07/25 14:08:17;;;;;;;8.85;3.83;;;;;;;-148.56;100.00;61375.16;4975050;28;20113;-31
2021/07/25 14:11:43;;;;;;;8.30;3.45;;;;;;;-148.56;100.00;61375.16;4974741;28;20740;-32
2021/07/25 14:15:05;;;;;;;6.68;3.88;;;;;;;-148.56;100.00;61375.16;4981365;28;20113;-30
2021/07/25 14:18:29;;;;;;;5.00;3.38;;;;;;;-148.56;100.00;61375.16;4975089;28;20061;-33
2021/07/25 14:21:53;;;;;;;4.95;3.63;;;;;;;-148.56;100.00;61375.16;4972945;28;20058;-33
2021/07/25 14:25:16;;;;;;;4.95;3.70;;;;;;;-148.56;100.00;61375.16;4976289;28;20065;-31
2021/07/25 14:28:41;;;;;;;6.00;3.40;;;;;;;-148.56;100.00;61375.16;4973971;28;20165;-30
2021/07/25 14:32:05;;;;;;;6.72;3.40;;;;;;;-148.56;100.00;61375.16;4973376;28;20057;-30
2021/07/25 14:35:29;;;;;;;4.90;3.63;;;;;;;-148.56;100.00;61375.16;4974749;28;20026;-31
2021/07/25 14:38:54;;;;;;;5.47;3.60;;;;;;;-148.56;100.00;61375.16;4977484;28;20115;-30
2021/07/25 14:42:18;;;;;;;6.43;3.38;;;;;;;-148.56;100.00;61375.16;4977301;28;20030;-30
2021/07/25 14:45:45;;;;;;;5.80;3.25;;;;;;;-148.56;100.00;61375.16;4974512;28;20596;-31
2021/07/25 14:49:09;;;;;;;5.28;3.55;;;;;;;-148.56;100.00;61375.16;4971807;28;20034;-31
2021/07/25 14:52:36;;;;;;;4.45;3.42;;;;;;;-148.56;100.00;61375.16;4974311;28;20036;-31
2021/07/25 14:56:00;;;;;;;5.85;3.53;;;;;;;-148.56;100.00;61375.16;4971247;28;20037;-30
2021/07/25 14:59:28;;;;;;;7.88;3.30;;;;;;;-148.56;100.00;61375.16;4981018;28;20111;-31
2021/07/25 15:02:51;;;;;;;5.63;3.20;;;;;;;-148.56;100.00;61375.16;4972717;28;20038;-31
2021/07/25 15:06:17;;;;;;;3.75;3.00;;;;;;;-148.56;100.00;61375.16;4974436;28;20083;-29
2021/07/25 15:09:41;;;;;;;4.60;2.88;;;;;;;-148.56;100.00;61375.16;4973527;28;20049;-30
2021/07/25 15:13:05;;;;;;;3.63;2.88;;;;;;;-148.56;100.00;61375.16;4974507;28;21091;-30
2021/07/25 15:16:29;;;;;;;6.22;3.25;;;;;;;-148.56;100.00;61375.16;4971998;28;20602;-31
2021/07/25 15:19:52;;;;;;;5.40;3.00;;;;;;;-148.56;100.00;61375.16;4972265;28;20411;-31
2021/07/25 15:23:16;;;;;;;13.82;3.30;;;;;;;-148.56;100.00;61375.16;4974035;28;20062;-30
2021/07/25 15:26:40;;;;;;;3.53;2.95;;;;;;;-148.56;100.00;61375.16;4976277;28;20048;-30
2021/07/25 15:30:05;;;;;;;6.15;2.72;;;;;;;-148.56;100.00;61375.16;4973009;28;20500;-30